createdAt,value
2023-03-25T00:01:26.117Z,11.76
2023-03-25T00:03:58.451Z,11.68
2023-03-25T00:06:31.425Z,11.65
2023-03-25T00:09:04.230Z,11.64
2023-03-25T00:11:35.965Z,11.60
2023-03-25T00:14:08.273Z,11.55
2023-03-25T00:16:43.421Z,11.49
2023-03-25T00:19:18.376Z,11.49
2023-03-25T00:21:50.541Z,11.46
2023-03-25T00:24:22.313Z,11.41
2023-03-25T00:26:54.350Z,11.39
2023-03-25T00:29:26.261Z,11.33
2023-03-25T00:31:57.974Z,11.33
2023-03-25T00:34:29.638Z,11.34
2023-03-25T00:37:04.558Z,11.30
2023-03-25T00:39:38.017Z,11.25
2023-03-25T00:42:11.338Z,11.19
2023-03-25T00:44:43.504Z,11.20
2023-03-25T00:47:18.762Z,11.17
2023-03-25T00:49:51.695Z,11.15
2023-03-25T00:52:23.441Z,11.15
2023-03-25T00:54:55.259Z,11.14
2023-03-25T00:57:26.986Z,11.11
2023-03-25T00:59:58.710Z,11.08
2023-03-25T01:02:31.191Z,11.06
2023-03-25T01:05:04.133Z,11.05
2023-03-25T01:07:37.591Z,11.00
2023-03-25T01:10:11.701Z,11.04
2023-03-25T01:12:43.421Z,11.01
2023-03-25T01:15:15.640Z,11.00
2023-03-25T01:17:47.384Z,10.91
2023-03-25T01:20:19.106Z,10.89
2023-03-25T01:22:51.175Z,10.88
2023-03-25T01:25:22.949Z,10.89
2023-03-25T01:27:54.670Z,10.89
2023-03-25T01:30:26.329Z,10.88
2023-03-25T01:32:58.237Z,10.86
2023-03-25T01:35:29.927Z,10.85
2023-03-25T01:38:01.741Z,10.84
2023-03-25T01:40:34.414Z,10.78
2023-03-25T01:43:13.401Z,10.77
2023-03-25T01:45:48.062Z,10.78
2023-03-25T01:48:28.532Z,10.77
2023-03-25T01:51:06.889Z,10.80
2023-03-25T01:53:39.520Z,10.82
2023-03-25T01:56:16.025Z,10.78
2023-03-25T01:58:48.314Z,10.79
2023-03-25T02:01:21.873Z,10.76
2023-03-25T02:04:02.990Z,10.73
2023-03-25T02:06:42.450Z,10.74
2023-03-25T02:09:17.822Z,10.76
2023-03-25T02:11:49.636Z,10.70
2023-03-25T02:14:25.869Z,10.68
2023-03-25T02:17:19.813Z,10.64
2023-03-25T02:20:11.205Z,10.61
2023-03-25T02:23:11.630Z,10.59
2023-03-25T02:26:09.433Z,10.59
2023-03-25T02:28:48.142Z,10.55
2023-03-25T02:31:33.217Z,10.54
2023-03-25T02:34:39.275Z,10.55
2023-03-25T02:37:22.852Z,10.56
2023-03-25T02:40:10.999Z,10.55
2023-03-25T02:43:05.991Z,10.55
2023-03-25T02:45:51.059Z,10.60
2023-03-25T02:48:34.079Z,10.61
2023-03-25T02:51:12.832Z,10.63
2023-03-25T02:53:48.283Z,10.62
2023-03-25T02:56:22.865Z,10.65
2023-03-25T02:58:57.472Z,10.66
2023-03-25T03:01:29.239Z,10.67
2023-03-25T03:04:02.212Z,10.67
2023-03-25T03:06:41.801Z,10.69
2023-03-25T03:09:25.814Z,10.68
2023-03-25T03:12:36.119Z,10.69
2023-03-25T03:15:16.384Z,10.72
2023-03-25T03:18:06.276Z,10.70
2023-03-25T03:21:07.133Z,10.67
2023-03-25T03:24:01.760Z,10.68
2023-03-25T03:26:53.824Z,10.65
2023-03-25T03:29:35.613Z,10.58
2023-03-25T03:32:21.953Z,10.57
2023-03-25T03:34:58.057Z,10.54
2023-03-25T03:37:41.315Z,10.50
2023-03-25T03:40:17.894Z,10.45
2023-03-25T03:43:01.161Z,10.41
2023-03-25T03:45:49.901Z,10.39
2023-03-25T03:48:38.169Z,10.31
2023-03-25T03:51:18.668Z,10.28
2023-03-25T03:54:05.468Z,10.26
2023-03-25T03:56:47.933Z,10.24
2023-03-25T03:59:38.031Z,10.14
2023-03-25T04:02:24.146Z,10.10
2023-03-25T04:05:00.617Z,10.09
2023-03-25T04:07:54.829Z,10.06
2023-03-25T04:10:42.523Z,10.02
2023-03-25T04:13:17.389Z,10.01
2023-03-25T04:15:49.830Z,10.01
2023-03-25T04:18:23.454Z,9.98
2023-03-25T04:20:56.041Z,9.99
2023-03-25T04:23:31.909Z,9.97
2023-03-25T04:26:03.909Z,9.91
2023-03-25T04:28:41.864Z,9.86
2023-03-25T04:31:15.754Z,9.87
2023-03-25T04:33:48.837Z,9.89
2023-03-25T04:36:20.932Z,9.91
2023-03-25T04:38:53.200Z,9.94
2023-03-25T04:41:25.743Z,9.97
2023-03-25T04:43:58.383Z,9.99
2023-03-25T04:46:30.113Z,9.99
2023-03-25T04:49:14.066Z,9.98
2023-03-25T04:51:45.937Z,10.01
2023-03-25T04:54:21.680Z,9.99
2023-03-25T04:56:53.464Z,10.00
2023-03-25T04:59:25.107Z,10.03
2023-03-25T05:01:56.902Z,10.02
2023-03-25T05:04:29.023Z,10.00
2023-03-25T05:07:00.803Z,10.02
2023-03-25T05:09:32.502Z,10.05
2023-03-25T05:12:04.364Z,10.01
2023-03-25T05:14:36.042Z,9.99
2023-03-25T05:17:07.681Z,10.01
2023-03-25T05:19:43.712Z,10.09
2023-03-25T05:22:15.399Z,10.04
2023-03-25T05:24:47.458Z,10.05
2023-03-25T05:27:20.253Z,10.04
2023-03-25T05:29:52.087Z,10.10
2023-03-25T05:32:26.008Z,10.16
2023-03-25T05:34:57.701Z,10.85
2023-03-25T05:37:29.792Z,11.27
2023-03-25T05:40:02.298Z,12.72
2023-03-25T05:42:34.935Z,13.99
2023-03-25T05:45:10.383Z,14.43
2023-03-25T05:47:46.061Z,14.70
2023-03-25T05:50:18.181Z,14.00
2023-03-25T05:52:51.793Z,13.97
2023-03-25T05:55:23.814Z,13.96
2023-03-25T05:57:56.962Z,13.46
2023-03-25T06:00:30.473Z,13.20
2023-03-25T06:03:02.385Z,12.90
2023-03-25T06:05:41.495Z,12.45
2023-03-25T06:08:13.919Z,12.23
2023-03-25T06:10:45.960Z,12.12
2023-03-25T06:13:17.709Z,12.09
2023-03-25T06:15:49.539Z,11.98
2023-03-25T06:18:24.910Z,11.84
2023-03-25T06:20:57.765Z,11.85
2023-03-25T06:23:29.498Z,12.04
2023-03-25T06:26:01.564Z,12.02
2023-03-25T06:28:33.678Z,12.34
2023-03-25T06:31:08.485Z,12.53
2023-03-25T06:33:42.770Z,12.91
2023-03-25T06:36:18.730Z,13.05
2023-03-25T06:38:51.006Z,13.24
2023-03-25T06:41:25.631Z,13.21
2023-03-25T06:44:08.440Z,13.08
2023-03-25T06:46:52.424Z,12.91
2023-03-25T06:49:45.143Z,13.15
2023-03-25T06:52:19.462Z,13.51
2023-03-25T06:54:51.259Z,14.03
2023-03-25T06:57:22.940Z,14.52
2023-03-25T06:59:54.689Z,14.85
2023-03-25T07:02:26.462Z,15.17
2023-03-25T07:04:58.260Z,15.50
2023-03-25T07:07:29.964Z,15.68
2023-03-25T07:10:01.755Z,16.04
2023-03-25T07:12:34.946Z,16.38
2023-03-25T07:15:07.873Z,16.33
2023-03-25T07:17:43.053Z,16.36
2023-03-25T07:20:17.018Z,16.20
2023-03-25T07:22:48.930Z,15.95
2023-03-25T07:25:20.689Z,15.67
2023-03-25T07:27:52.401Z,15.62
2023-03-25T07:30:25.594Z,15.97
2023-03-25T07:33:00.392Z,16.25
2023-03-25T07:35:32.210Z,16.29
2023-03-25T07:38:05.121Z,16.23
2023-03-25T07:40:36.924Z,16.36
2023-03-25T07:43:08.683Z,16.51
2023-03-25T07:45:58.794Z,16.33
2023-03-25T07:48:34.462Z,16.10
2023-03-25T07:51:09.032Z,15.52
2023-03-25T07:53:44.595Z,14.61
2023-03-25T07:56:16.419Z,14.01
2023-03-25T07:58:49.603Z,13.62
2023-03-25T08:01:23.901Z,13.34
2023-03-25T08:03:55.607Z,12.97
2023-03-25T08:06:27.314Z,12.80
2023-03-25T08:08:59.030Z,12.80
2023-03-25T08:11:32.568Z,12.63
2023-03-25T08:14:05.540Z,12.45
2023-03-25T08:16:37.337Z,12.11
2023-03-25T08:19:09.110Z,11.88
2023-03-25T08:21:41.307Z,11.79
2023-03-25T08:24:13.738Z,11.64
2023-03-25T08:26:45.440Z,11.69
2023-03-25T08:29:17.943Z,11.84
2023-03-25T08:31:52.524Z,12.23
2023-03-25T08:34:29.086Z,12.64
2023-03-25T08:37:04.411Z,13.54
2023-03-25T08:39:40.244Z,14.19
2023-03-25T08:42:15.692Z,14.49
2023-03-25T08:44:47.711Z,14.75
2023-03-25T08:47:20.677Z,14.42
2023-03-25T08:49:52.374Z,14.03
2023-03-25T08:52:24.132Z,13.75
2023-03-25T08:54:55.914Z,13.37
2023-03-25T08:57:30.623Z,13.29
2023-03-25T09:00:02.722Z,13.03
2023-03-25T09:02:37.398Z,12.82
2023-03-25T09:05:12.932Z,12.54
2023-03-25T09:07:47.056Z,12.23
2023-03-25T09:10:19.776Z,12.22
2023-03-25T09:12:51.876Z,12.25
2023-03-25T09:15:23.730Z,12.32
2023-03-25T09:17:55.568Z,12.57
2023-03-25T09:20:27.447Z,12.90
2023-03-25T09:22:59.443Z,13.21
2023-03-25T09:25:31.074Z,13.73
2023-03-25T09:28:02.812Z,14.07
2023-03-25T09:30:34.853Z,14.54
2023-03-25T09:33:07.282Z,15.05
2023-03-25T09:35:41.374Z,15.67
2023-03-25T09:38:13.569Z,16.04
2023-03-25T09:40:46.012Z,16.34
2023-03-25T09:43:26.973Z,16.40
2023-03-25T09:45:59.984Z,16.54
2023-03-25T09:48:42.072Z,17.17
2023-03-25T09:51:36.655Z,17.30
2023-03-25T09:54:29.499Z,17.15
2023-03-25T09:57:07.830Z,17.06
2023-03-25T09:59:48.951Z,17.03
2023-03-25T10:02:41.580Z,16.91
2023-03-25T10:05:31.207Z,17.30
2023-03-25T10:08:17.926Z,17.45
2023-03-25T10:11:07.933Z,17.58
2023-03-25T10:14:29.188Z,17.63
2023-03-25T10:17:08.787Z,17.79
2023-03-25T10:19:54.464Z,17.84
2023-03-25T10:22:50.527Z,17.00
2023-03-25T10:25:26.782Z,16.34
2023-03-25T10:28:01.136Z,15.79
2023-03-25T10:30:38.714Z,15.41
2023-03-25T10:33:25.034Z,15.15
2023-03-25T10:35:59.980Z,15.10
2023-03-25T10:38:36.433Z,15.19
2023-03-25T10:41:23.256Z,15.33
2023-03-25T10:43:54.965Z,15.33
2023-03-25T10:46:55.531Z,15.38
2023-03-25T10:49:30.552Z,15.11
2023-03-25T10:52:02.496Z,14.94
2023-03-25T10:54:39.536Z,14.79
2023-03-25T10:57:20.339Z,14.50
2023-03-25T11:00:19.635Z,14.51
2023-03-25T11:02:51.671Z,14.65
2023-03-25T11:05:28.291Z,14.67
2023-03-25T11:08:18.084Z,14.54
2023-03-25T11:11:00.402Z,14.25
2023-03-25T11:13:32.145Z,14.03
2023-03-25T11:16:04.391Z,13.93
2023-03-25T11:18:40.781Z,13.86
2023-03-25T11:21:14.338Z,13.76
2023-03-25T11:23:51.699Z,13.76
2023-03-25T11:26:37.324Z,13.74
2023-03-25T11:29:18.952Z,13.79
2023-03-25T11:32:14.804Z,14.18
2023-03-25T11:34:52.005Z,14.58
2023-03-25T11:37:27.942Z,14.73
2023-03-25T11:40:06.611Z,14.69
2023-03-25T11:42:42.930Z,14.87
2023-03-25T11:45:40.892Z,14.74
2023-03-25T11:48:18.113Z,15.08
2023-03-25T11:50:59.852Z,15.70
2023-03-25T11:53:33.466Z,16.19
2023-03-25T11:56:10.910Z,16.24
2023-03-25T11:58:43.316Z,16.07
2023-03-25T12:01:36.923Z,15.75
2023-03-25T12:04:13.221Z,15.30
2023-03-25T12:07:00.055Z,15.05
2023-03-25T12:09:32.029Z,14.83
2023-03-25T12:12:42.491Z,14.72
2023-03-25T12:15:28.540Z,14.64
2023-03-25T12:18:35.822Z,14.53
2023-03-25T12:21:16.864Z,14.42
2023-03-25T12:24:00.560Z,14.36
2023-03-25T12:27:03.077Z,14.37
2023-03-25T12:29:45.859Z,14.38
2023-03-25T12:32:30.501Z,14.79
2023-03-25T12:35:41.535Z,15.06
2023-03-25T12:38:32.766Z,15.10
2023-03-25T12:41:10.389Z,14.96
2023-03-25T12:43:51.007Z,14.78
2023-03-25T12:46:38.676Z,14.72
2023-03-25T12:49:31.648Z,15.03
2023-03-25T12:52:21.232Z,15.30
2023-03-25T12:55:03.630Z,15.36
2023-03-25T12:57:56.602Z,15.55
2023-03-25T13:00:30.959Z,15.38
2023-03-25T13:03:36.619Z,15.16
2023-03-25T13:06:26.397Z,14.95
2023-03-25T13:09:24.126Z,14.94
2023-03-25T13:12:03.776Z,14.93
2023-03-25T13:14:41.568Z,15.04
2023-03-25T13:17:28.569Z,15.28
2023-03-25T13:20:06.443Z,15.61
2023-03-25T13:22:46.880Z,15.98
2023-03-25T13:25:26.965Z,16.16
2023-03-25T13:28:03.181Z,16.27
2023-03-25T13:30:38.924Z,16.33
2023-03-25T13:33:25.143Z,16.22
2023-03-25T13:36:06.003Z,16.28
2023-03-25T13:38:50.575Z,16.32
2023-03-25T13:41:37.432Z,16.40
2023-03-25T13:44:26.485Z,16.46
2023-03-25T13:47:04.823Z,16.21
2023-03-25T13:49:58.084Z,15.83
2023-03-25T13:52:36.686Z,15.54
2023-03-25T13:55:26.224Z,15.40
2023-03-25T13:58:18.203Z,15.15
2023-03-25T14:00:53.060Z,14.92
2023-03-25T14:03:50.498Z,14.73
2023-03-25T14:06:35.125Z,14.67
2023-03-25T14:09:34.672Z,14.57
2023-03-25T14:12:21.485Z,14.70
2023-03-25T14:15:05.066Z,14.77
2023-03-25T14:17:37.509Z,14.87
2023-03-25T14:20:18.973Z,14.99
2023-03-25T14:22:56.929Z,14.98
2023-03-25T14:25:37.319Z,14.87
2023-03-25T14:28:16.456Z,14.85
2023-03-25T14:31:17.107Z,14.75
2023-03-25T14:34:02.129Z,14.63
2023-03-25T14:36:39.836Z,14.52
2023-03-25T14:39:32.073Z,14.49
2023-03-25T14:42:06.717Z,14.37
2023-03-25T14:44:41.327Z,14.15
2023-03-25T14:47:17.072Z,14.04
2023-03-25T14:50:13.624Z,13.94
2023-03-25T14:52:48.948Z,13.59
2023-03-25T14:55:32.674Z,13.18
2023-03-25T14:58:24.659Z,13.00
2023-03-25T15:01:05.119Z,12.74
2023-03-25T15:03:44.377Z,12.68
2023-03-25T15:06:28.353Z,12.66
2023-03-25T15:09:09.759Z,12.55
2023-03-25T15:11:52.726Z,12.41
2023-03-25T15:14:28.771Z,12.34
2023-03-25T15:17:09.882Z,12.20
2023-03-25T15:20:23.195Z,12.08
2023-03-25T15:23:22.230Z,12.03
2023-03-25T15:25:57.279Z,12.00
2023-03-25T15:28:34.703Z,11.92
2023-03-25T15:31:41.097Z,11.77
2023-03-25T15:34:28.197Z,11.81
2023-03-25T15:37:03.229Z,11.81
2023-03-25T15:39:54.428Z,11.81
2023-03-25T15:42:32.395Z,11.71
2023-03-25T15:45:52.142Z,11.79
2023-03-25T15:48:45.780Z,11.69
2023-03-25T15:51:38.641Z,11.71
2023-03-25T15:54:26.594Z,11.73
2023-03-25T15:57:28.824Z,11.71
2023-03-25T16:00:28.485Z,11.70
2023-03-25T16:03:01.871Z,11.75
2023-03-25T16:05:42.771Z,11.78
2023-03-25T16:08:22.792Z,11.79
2023-03-25T16:10:54.495Z,11.78
2023-03-25T16:13:26.272Z,11.78
2023-03-25T16:15:58.697Z,11.71
2023-03-25T16:18:30.460Z,11.71
2023-03-25T16:21:03.463Z,11.74
2023-03-25T16:23:37.275Z,11.62
2023-03-25T16:26:17.888Z,11.62
2023-03-25T16:28:49.560Z,11.62
2023-03-25T16:31:34.950Z,11.65
2023-03-25T16:34:16.247Z,11.56
2023-03-25T16:36:50.841Z,11.58
2023-03-25T16:39:24.827Z,11.53
2023-03-25T16:42:02.726Z,11.47
2023-03-25T16:44:34.875Z,11.48
2023-03-25T16:47:06.812Z,11.48
2023-03-25T16:49:39.374Z,11.45
2023-03-25T16:52:15.465Z,11.75
2023-03-25T16:55:26.563Z,12.20
2023-03-25T16:58:02.422Z,12.16
2023-03-25T17:00:43.146Z,11.93
2023-03-25T17:03:21.322Z,11.80
2023-03-25T17:06:08.925Z,11.63
2023-03-25T17:08:40.827Z,11.50
2023-03-25T17:11:13.699Z,11.44
2023-03-25T17:13:51.952Z,11.34
2023-03-25T17:16:28.275Z,11.30
2023-03-25T17:19:01.845Z,11.28
2023-03-25T17:21:34.838Z,11.29
2023-03-25T17:24:22.596Z,11.23
2023-03-25T17:27:08.049Z,11.20
2023-03-25T17:29:51.118Z,11.16
2023-03-25T17:32:23.658Z,11.07
2023-03-25T17:35:06.512Z,10.98
2023-03-25T17:37:38.386Z,10.92
2023-03-25T17:40:21.412Z,10.87
2023-03-25T17:42:53.686Z,10.83
2023-03-25T17:45:26.181Z,10.74
2023-03-25T17:47:57.936Z,10.66
2023-03-25T17:50:33.074Z,10.57
2023-03-25T17:53:04.754Z,10.54
2023-03-25T17:55:37.243Z,10.46
2023-03-25T17:58:09.282Z,10.36
2023-03-25T18:00:42.955Z,10.35
2023-03-25T18:03:23.860Z,10.28
2023-03-25T18:05:55.619Z,10.21
2023-03-25T18:08:28.150Z,10.23
2023-03-25T18:11:00.023Z,10.16
2023-03-25T18:13:31.741Z,10.09
2023-03-25T18:16:03.635Z,10.07
2023-03-25T18:18:35.506Z,10.01
2023-03-25T18:21:11.676Z,9.99
2023-03-25T18:23:48.000Z,9.96
2023-03-25T18:26:22.383Z,9.95
2023-03-25T18:28:54.065Z,9.94
2023-03-25T18:31:27.352Z,9.96
2023-03-25T18:33:59.088Z,9.90
2023-03-25T18:36:31.452Z,9.86
2023-03-25T18:39:04.073Z,9.83
2023-03-25T18:41:35.775Z,9.82
2023-03-25T18:44:07.946Z,9.82
2023-03-25T18:46:41.516Z,9.77
2023-03-25T18:49:18.603Z,9.73
2023-03-25T18:51:50.388Z,9.73
2023-03-25T18:54:22.061Z,9.73
2023-03-25T18:56:53.781Z,9.70
2023-03-25T18:59:25.677Z,9.66
2023-03-25T19:01:58.125Z,9.64
2023-03-25T19:04:31.904Z,9.64
2023-03-25T19:07:04.736Z,9.61
2023-03-25T19:09:36.436Z,9.59
2023-03-25T19:12:08.162Z,9.56
2023-03-25T19:14:39.850Z,9.53
2023-03-25T19:17:12.950Z,9.53
2023-03-25T19:19:44.711Z,9.45
2023-03-25T19:22:16.399Z,9.43
2023-03-25T19:24:48.057Z,9.44
2023-03-25T19:27:19.858Z,9.43
2023-03-25T19:29:52.239Z,9.43
2023-03-25T19:32:24.069Z,9.36
2023-03-25T19:34:56.622Z,9.34
2023-03-25T19:37:35.398Z,9.31
2023-03-25T19:40:09.391Z,9.32
2023-03-25T19:42:41.176Z,9.29
2023-03-25T19:45:13.647Z,9.29
2023-03-25T19:47:45.888Z,9.24
2023-03-25T19:50:23.554Z,9.21
2023-03-25T19:52:56.434Z,9.20
2023-03-25T19:55:31.031Z,9.21
2023-03-25T19:58:03.288Z,9.19
2023-03-25T20:00:35.210Z,9.24
2023-03-25T20:03:07.767Z,9.28
2023-03-25T20:05:40.597Z,9.29
2023-03-25T20:08:12.556Z,9.26
2023-03-25T20:10:45.365Z,9.24
2023-03-25T20:13:17.164Z,9.26
2023-03-25T20:15:50.625Z,9.21
2023-03-25T20:18:22.671Z,9.15
2023-03-25T20:20:54.374Z,9.15
2023-03-25T20:23:26.152Z,9.14
2023-03-25T20:25:57.834Z,9.13
2023-03-25T20:28:31.423Z,9.12
2023-03-25T20:31:13.498Z,9.17
2023-03-25T20:33:46.775Z,9.20
2023-03-25T20:36:20.221Z,9.20
2023-03-25T20:38:57.743Z,9.22
2023-03-25T20:41:29.834Z,9.27
2023-03-25T20:44:01.569Z,9.31
2023-03-25T20:46:33.326Z,9.24
2023-03-25T20:49:08.909Z,9.24
2023-03-25T20:51:41.722Z,9.28
2023-03-25T20:54:15.129Z,9.26
2023-03-25T20:56:46.933Z,9.26
2023-03-25T20:59:19.888Z,9.24
2023-03-25T21:01:54.365Z,9.26
2023-03-25T21:04:26.585Z,9.33
2023-03-25T21:06:58.578Z,9.30
2023-03-25T21:09:30.660Z,9.29
2023-03-25T21:12:02.491Z,9.23
2023-03-25T21:14:36.264Z,9.19
2023-03-25T21:17:08.051Z,9.16
2023-03-25T21:19:40.157Z,9.17
2023-03-25T21:22:12.314Z,9.21
2023-03-25T21:24:44.069Z,9.22
2023-03-25T21:27:17.743Z,9.23
2023-03-25T21:29:52.488Z,9.25
2023-03-25T21:32:24.329Z,9.26
2023-03-25T21:34:56.013Z,9.25
2023-03-25T21:37:29.068Z,9.21
2023-03-25T21:40:00.916Z,9.14
2023-03-25T21:42:32.559Z,9.17
2023-03-25T21:45:05.299Z,9.18
2023-03-25T21:47:37.235Z,9.15
2023-03-25T21:50:11.946Z,9.17
2023-03-25T21:52:46.574Z,9.19
2023-03-25T21:55:19.543Z,9.20
2023-03-25T21:57:51.443Z,9.21
2023-03-25T22:00:25.010Z,9.24
2023-03-25T22:02:58.466Z,9.25
2023-03-25T22:05:31.051Z,9.27
2023-03-25T22:08:02.739Z,9.28
2023-03-25T22:10:34.426Z,9.31
2023-03-25T22:13:06.241Z,9.35
2023-03-25T22:15:37.945Z,9.40
2023-03-25T22:18:09.686Z,9.37
2023-03-25T22:20:41.622Z,9.36
2023-03-25T22:23:13.329Z,9.39
2023-03-25T22:25:45.929Z,9.37
2023-03-25T22:28:19.996Z,9.41
2023-03-25T22:30:51.856Z,9.42
2023-03-25T22:33:23.606Z,9.46
2023-03-25T22:36:02.810Z,9.46
2023-03-25T22:38:34.540Z,9.50
2023-03-25T22:41:07.996Z,9.44
2023-03-25T22:43:40.382Z,9.44
2023-03-25T22:46:12.507Z,9.46
2023-03-25T22:48:44.657Z,9.48
2023-03-25T22:51:18.777Z,9.46
2023-03-25T22:53:51.017Z,9.45
2023-03-25T22:56:23.688Z,9.45
2023-03-25T22:58:55.378Z,9.40
2023-03-25T23:01:28.584Z,9.40
2023-03-25T23:04:00.557Z,9.36
2023-03-25T23:06:33.399Z,9.30
2023-03-25T23:09:08.366Z,9.31
2023-03-25T23:11:40.396Z,9.29
2023-03-25T23:14:13.258Z,9.29
2023-03-25T23:16:45.085Z,9.23
2023-03-25T23:19:16.742Z,9.21
2023-03-25T23:21:49.734Z,9.14
2023-03-25T23:24:21.440Z,9.15
2023-03-25T23:26:53.535Z,9.14
2023-03-25T23:29:25.212Z,9.10
2023-03-25T23:31:56.965Z,9.04
2023-03-25T23:34:28.644Z,9.07
2023-03-25T23:37:01.713Z,9.03
2023-03-25T23:39:34.957Z,8.99
2023-03-25T23:42:07.505Z,9.00
2023-03-25T23:44:39.200Z,8.96
2023-03-25T23:47:11.190Z,8.96
2023-03-25T23:49:44.204Z,8.98
2023-03-25T23:52:15.971Z,9.01
2023-03-25T23:54:48.643Z,9.03
2023-03-25T23:57:20.576Z,9.09
2023-03-25T23:59:52.231Z,9.12
